createdAt,value
2023-04-22T00:03:10.287Z,6.77
2023-04-22T00:08:15.802Z,6.74
2023-04-22T00:13:19.693Z,6.68
2023-04-22T00:18:23.644Z,6.67
2023-04-22T00:23:29.033Z,6.59
2023-04-22T00:28:33.056Z,6.50
2023-04-22T00:33:37.410Z,6.40
2023-04-22T00:38:47.711Z,6.37
2023-04-22T00:43:53.630Z,6.27
2023-04-22T00:48:58.610Z,6.18
2023-04-22T00:54:04.803Z,6.12
2023-04-22T00:59:10.887Z,6.06
2023-04-22T01:04:15.566Z,6.03
2023-04-22T01:09:22.853Z,5.95
2023-04-22T01:14:26.897Z,5.88
2023-04-22T01:19:30.970Z,5.85
2023-04-22T01:24:36.782Z,5.77
2023-04-22T01:29:41.055Z,5.71
2023-04-22T01:34:45.348Z,5.58
2023-04-22T01:39:51.603Z,5.52
2023-04-22T01:44:55.763Z,5.46
2023-04-22T01:49:59.987Z,5.41
2023-04-22T01:55:05.918Z,5.37
2023-04-22T02:00:11.335Z,5.38
2023-04-22T02:05:22.311Z,5.42
2023-04-22T02:15:57.256Z,5.65
2023-04-22T02:21:01.249Z,5.66
2023-04-22T02:26:07.153Z,5.69
2023-04-22T02:31:12.553Z,5.64
2023-04-22T02:36:17.827Z,5.60
2023-04-22T02:41:24.214Z,5.56
2023-04-22T02:46:29.632Z,5.53
2023-04-22T02:51:41.691Z,5.61
2023-04-22T02:56:48.309Z,5.62
2023-04-22T03:01:52.260Z,5.60
2023-04-22T03:07:16.461Z,5.56
2023-04-22T03:12:21.863Z,5.50
2023-04-22T03:17:26.752Z,5.53
2023-04-22T03:22:31.193Z,5.60
2023-04-22T03:27:39.342Z,5.61
2023-04-22T03:32:43.352Z,5.38
2023-04-22T03:38:19.635Z,5.09
2023-04-22T03:43:28.811Z,5.04
2023-04-22T03:48:39.490Z,4.94
2023-04-22T03:53:48.816Z,4.64
2023-04-22T03:58:58.802Z,4.81
2023-04-22T04:04:03.826Z,4.95
2023-04-22T04:09:19.579Z,5.07
2023-04-22T04:14:25.471Z,5.08
2023-04-22T04:19:30.132Z,5.21
2023-04-22T04:24:36.651Z,5.41
2023-04-22T04:29:49.651Z,5.93
2023-04-22T04:35:03.230Z,6.33
2023-04-22T04:40:12.301Z,6.53
2023-04-22T04:45:37.822Z,6.78
2023-04-22T04:50:43.574Z,7.17
2023-04-22T04:55:49.733Z,7.36
2023-04-22T05:01:00.248Z,7.73
2023-04-22T05:06:05.338Z,8.23
2023-04-22T05:11:10.249Z,8.34
2023-04-22T05:16:16.163Z,8.33
2023-04-22T05:21:20.406Z,8.67
2023-04-22T05:26:24.675Z,9.09
2023-04-22T05:31:30.228Z,9.83
2023-04-22T05:36:35.014Z,10.11
2023-04-22T05:41:39.326Z,10.62
2023-04-22T05:46:48.149Z,10.60
2023-04-22T05:51:53.056Z,10.84
2023-04-22T05:57:00.989Z,11.47
2023-04-22T06:02:06.674Z,11.69
2023-04-22T06:07:10.832Z,11.56
2023-04-22T06:12:16.706Z,12.02
2023-04-22T06:17:22.152Z,12.25
2023-04-22T06:22:26.246Z,12.45
2023-04-22T06:27:30.227Z,13.25
2023-04-22T06:32:37.331Z,13.33
2023-04-22T06:37:41.799Z,13.69
2023-04-22T06:42:46.690Z,13.81
2023-04-22T06:48:15.114Z,13.77
2023-04-22T06:53:37.446Z,14.16
2023-04-22T06:58:41.439Z,14.96
2023-04-22T07:03:47.591Z,14.52
2023-04-22T07:08:52.452Z,15.67
2023-04-22T07:13:57.076Z,14.65
2023-04-22T07:19:02.442Z,13.08
2023-04-22T07:24:07.033Z,14.25
2023-04-22T07:29:11.452Z,14.79
2023-04-22T07:34:17.532Z,13.47
2023-04-22T07:39:21.587Z,12.79
2023-04-22T07:44:25.595Z,14.11
2023-04-22T07:49:30.860Z,16.07
2023-04-22T07:54:34.830Z,16.72
2023-04-22T07:59:38.924Z,15.71
2023-04-22T08:04:48.147Z,14.57
2023-04-22T08:17:17.255Z,14.24
2023-04-22T08:22:23.921Z,14.45
2023-04-22T08:27:28.039Z,14.09
2023-04-22T08:32:32.075Z,14.31
2023-04-22T08:37:37.590Z,14.26
2023-04-22T08:42:41.565Z,13.57
2023-04-22T08:47:45.859Z,13.07
2023-04-22T08:52:51.272Z,12.17
2023-04-22T08:57:55.916Z,12.19
2023-04-22T09:03:03.471Z,12.21
2023-04-22T09:08:09.662Z,12.46
2023-04-22T09:13:15.227Z,14.36
2023-04-22T09:18:19.652Z,14.49
2023-04-22T09:23:25.613Z,14.18
2023-04-22T09:28:29.662Z,14.29
2023-04-22T09:33:40.263Z,14.15
2023-04-22T09:38:55.490Z,14.79
2023-04-22T09:44:00.640Z,15.41
2023-04-22T09:49:04.595Z,17.74
2023-04-22T09:54:11.585Z,17.51
2023-04-22T09:59:20.636Z,18.97
2023-04-22T10:04:25.147Z,17.44
2023-04-22T10:09:30.815Z,18.45
2023-04-22T10:14:59.331Z,20.18
2023-04-22T10:20:07.897Z,20.32
2023-04-22T10:25:23.502Z,18.26
2023-04-22T10:30:32.310Z,16.78
2023-04-22T10:35:36.418Z,16.25
2023-04-22T10:41:00.096Z,16.02
2023-04-22T10:46:04.201Z,18.67
2023-04-22T10:51:40.873Z,18.64
2023-04-22T10:57:04.540Z,16.11
2023-04-22T11:02:12.758Z,14.60
2023-04-22T11:07:31.958Z,13.70
2023-04-22T11:12:46.828Z,13.61
2023-04-22T11:17:56.359Z,13.94
2023-04-22T11:23:00.521Z,13.26
2023-04-22T11:28:09.135Z,13.50
2023-04-22T11:33:18.647Z,14.60
2023-04-22T11:43:52.220Z,14.42
2023-04-22T11:48:56.184Z,13.82
2023-04-22T11:54:00.528Z,13.53
2023-04-22T11:59:08.753Z,15.41
2023-04-22T12:04:16.303Z,16.83
2023-04-22T12:09:20.309Z,15.86
2023-04-22T12:14:33.563Z,16.31
2023-04-22T12:19:39.030Z,17.38
2023-04-22T12:24:47.144Z,16.64
2023-04-22T12:29:56.912Z,17.48
2023-04-22T12:35:00.962Z,18.51
2023-04-22T12:40:07.136Z,18.35
2023-04-22T12:45:13.023Z,18.81
2023-04-22T12:50:17.004Z,18.36
2023-04-22T12:55:21.413Z,19.10
2023-04-22T13:00:27.159Z,19.02
2023-04-22T13:05:31.346Z,18.34
2023-04-22T13:10:35.515Z,16.40
2023-04-22T13:15:41.165Z,15.97
2023-04-22T13:20:45.145Z,16.33
2023-04-22T13:25:49.184Z,15.73
2023-04-22T13:30:55.258Z,16.05
2023-04-22T13:35:59.213Z,16.92
2023-04-22T13:41:06.355Z,17.88
2023-04-22T13:46:12.464Z,18.77
2023-04-22T13:51:20.102Z,16.44
2023-04-22T13:56:24.954Z,15.13
2023-04-22T14:01:30.492Z,15.03
2023-04-22T14:06:34.702Z,14.72
2023-04-22T14:11:38.666Z,14.12
2023-04-22T14:16:44.174Z,13.47
2023-04-22T14:21:48.393Z,12.89
2023-04-22T14:26:53.060Z,12.58
2023-04-22T14:31:58.626Z,12.27
2023-04-22T14:37:02.584Z,12.10
2023-04-22T14:42:06.870Z,11.69
2023-04-22T14:47:12.250Z,11.62
2023-04-22T14:52:16.278Z,11.46
2023-04-22T14:57:20.636Z,11.68
2023-04-22T15:02:26.120Z,11.64
2023-04-22T15:07:30.284Z,11.59
2023-04-22T15:12:34.316Z,11.82
2023-04-22T15:17:39.631Z,11.80
2023-04-22T15:22:45.055Z,11.82
2023-04-22T15:27:49.214Z,11.79
2023-04-22T15:32:54.537Z,11.69
2023-04-22T15:37:59.352Z,11.42
2023-04-22T15:43:03.569Z,11.50
2023-04-22T15:48:11.787Z,11.57
2023-04-22T15:53:15.956Z,11.09
2023-04-22T15:58:19.969Z,10.77
2023-04-22T16:03:25.564Z,10.91
2023-04-22T16:08:29.863Z,10.80
2023-04-22T16:13:33.911Z,10.74
2023-04-22T16:18:41.408Z,10.72
2023-04-22T16:23:46.831Z,10.80
2023-04-22T16:28:50.776Z,10.68
2023-04-22T16:33:59.560Z,10.41
2023-04-22T16:39:03.744Z,10.16
2023-04-22T16:44:07.722Z,9.93
2023-04-22T16:49:13.676Z,9.78
2023-04-22T16:54:17.843Z,9.77
2023-04-22T16:59:21.830Z,9.85
2023-04-22T17:04:27.479Z,9.68
2023-04-22T17:09:33.060Z,9.69
2023-04-22T17:14:37.053Z,9.40
2023-04-22T17:19:43.025Z,9.40
2023-04-22T17:24:47.373Z,9.25
2023-04-22T17:29:51.306Z,9.09
2023-04-22T17:34:56.722Z,8.89
2023-04-22T17:40:01.008Z,8.67
2023-04-22T17:45:05.577Z,8.70
2023-04-22T17:50:11.764Z,8.78
2023-04-22T17:55:15.750Z,8.82
2023-04-22T18:00:19.962Z,8.43
2023-04-22T18:05:27.107Z,8.43
2023-04-22T18:10:31.737Z,8.21
2023-04-22T18:15:35.747Z,8.18
2023-04-22T18:20:41.517Z,8.20
2023-04-22T18:25:48.109Z,8.43
2023-04-22T18:30:52.112Z,8.28
2023-04-22T18:35:59.819Z,8.26
2023-04-22T18:41:03.825Z,8.21
2023-04-22T18:46:08.381Z,8.21
2023-04-22T18:51:14.772Z,8.04
2023-04-22T18:56:18.759Z,7.92
2023-04-22T19:01:22.850Z,7.84
2023-04-22T19:06:29.012Z,7.64
2023-04-22T19:11:33.021Z,7.53
2023-04-22T19:16:36.948Z,7.38
2023-04-22T19:21:42.333Z,7.29
2023-04-22T19:26:47.162Z,7.24
2023-04-22T19:31:51.253Z,7.03
2023-04-22T19:36:56.561Z,6.96
2023-04-22T19:42:03.365Z,6.79
2023-04-22T19:47:07.590Z,6.82
2023-04-22T19:52:15.699Z,6.62
2023-04-22T19:57:20.508Z,6.63
2023-04-22T20:02:26.132Z,6.48
2023-04-22T20:07:32.822Z,6.36
2023-04-22T20:12:38.265Z,6.38
2023-04-22T20:17:42.801Z,6.40
2023-04-22T20:22:49.778Z,6.35
2023-04-22T20:27:54.319Z,6.27
2023-04-22T20:32:58.601Z,6.29
2023-04-22T20:38:04.843Z,6.20
2023-04-22T20:43:08.781Z,6.16
2023-04-22T20:48:12.849Z,6.04
2023-04-22T20:53:19.263Z,5.99
2023-04-22T20:58:23.226Z,5.92
2023-04-22T21:03:28.578Z,5.89
2023-04-22T21:08:35.093Z,5.92
2023-04-22T21:13:39.570Z,6.00
2023-04-22T21:18:47.140Z,5.95
2023-04-22T21:23:56.805Z,5.92
2023-04-22T21:29:01.720Z,5.95
2023-04-22T21:34:08.787Z,5.82
2023-04-22T21:39:14.394Z,5.89
2023-04-22T21:44:18.419Z,5.78
2023-04-22T21:49:23.217Z,5.80
2023-04-22T21:54:28.546Z,5.76
2023-04-22T21:59:32.519Z,5.64
2023-04-22T22:04:36.562Z,5.56
2023-04-22T22:09:43.937Z,5.52
2023-04-22T22:14:48.016Z,5.45
2023-04-22T22:19:52.061Z,5.54
2023-04-22T22:24:57.636Z,5.43
2023-04-22T22:30:01.842Z,5.36
2023-04-22T22:35:08.167Z,5.53
2023-04-22T22:40:14.574Z,5.66
2023-04-22T22:45:18.727Z,5.64
2023-04-22T22:50:24.808Z,5.52
2023-04-22T22:55:30.276Z,5.53
2023-04-22T23:00:34.265Z,5.44
2023-04-22T23:05:38.286Z,5.41
2023-04-22T23:10:43.619Z,5.44
2023-04-22T23:15:47.500Z,5.38
2023-04-22T23:20:52.244Z,5.28
2023-04-22T23:26:00.831Z,5.29
2023-04-22T23:31:07.937Z,5.23
2023-04-22T23:36:14.393Z,5.24
2023-04-22T23:41:19.837Z,5.20
2023-04-22T23:46:23.824Z,5.16
2023-04-22T23:51:29.794Z,5.30
2023-04-22T23:56:36.083Z,5.34
